AirNav   Everest Fuels
 
 1031 users online  

58MO Mercy Hospital Jefferson Heliport
Crystal City, Missouri, USA

GOING TO CRYSTAL CITY?


FAA INFORMATION EFFECTIVE 16 JULY 2020

Location

FAA Identifier: 58MO
Lat/Long: 38-11-44.0100N 090-23-36.1800W
38-11.733500N 090-23.603000W
38.1955583,-90.3933833
(estimated)
Elevation: 435 ft. / 133 m (estimated)
Variation: 02E (1985)
From city: 1 mile S of CRYSTAL CITY, MO
Time zone: UTC -5 (UTC -6 during Standard Time)
Zip code: 63028

Heliport Operations

Heliport use: Private use, MEDICAL.
Activation date: 07/1989
Control tower: no
ARTCC: KANSAS CITY CENTER
FSS: SAINT LOUIS FLIGHT SERVICE STATION
Attendance: CONTINUOUS
Wind indicator: yes
Segmented circle: yes

Nearby radio navigation aids

VOR radial/distance  VOR name  Freq  Var
FAMr345/32.2FARMINGTON VORTAC115.7001E
TOYr210/39.5TROY VORTAC116.0004E

Heliport Services

Runway Information

Helipad H1

Dimensions: 60 x 60 ft. / 18 x 18 m
Surface: concrete
Latitude: 38-11.733500N
Longitude: 090-23.603000W
Elevation: 435.0 ft.
Traffic pattern: leftleft

Heliport Ownership and Management from official FAA records

Ownership: Privately-owned
Owner: MERCY HOSPITAL JEFFERSON
HWY 61 SOUTH
CRYSTAL CITY, MO 63019
Phone 314-933-1000
Manager: JOSEPH COPUS
1400 US HIGHWAY 61
CRYSTAL CITY, MO 63019
Phone 314-933-1000
SENIOR MANAGER OF FACILITIES.

Heliport Operational Statistics

Aircraft based on the field: 1
Helicopters: 1
    

Additional Remarks

A52-H1 70' BLDG 75' NORTH; 30' TREES 100' EAST & SOUTH.
FOR CD CTC ST LOUIS APCH AT 314-890-1018.

Instrument Procedures

There are no published instrument procedures at 58MO.

Some nearby airports with instrument procedures:

KFES - Festus Memorial Airport (0 nm E)
8WC - Washington County Airport (23 nm SW)
KCPS - St Louis Downtown Airport (25 nm NE)
KFAM - Farmington Regional Airport (26 nm S)
KSUS - Spirit of St Louis Airport (31 nm NW)
 
Loc | Ops | Rwys | IFR | FBO | Links
Com | Nav | Svcs | Stats | Notes
Area around 58MO (Mercy Hospital Jefferson Heliport)
 
Road maps at: MapQuest Bing Google
 
Aerial photo
No photo
 
Sectional chart

 
Airport distance calculator
Flying to Mercy Hospital Jefferson Heliport? Find the distance to fly.

From to 58MO

Sunrise and sunset
Times for 11-Aug-2020
 Local
(UTC-5)
 Zulu
(UTC)
Morning civil twilight05:4610:46
Sunrise06:1511:15
Sunset19:5800:58
Evening civil twilight20:2701:27

Current date and time
Zulu (UTC)  12-Aug-2020 01:01:31
Local (UTC-5)  11-Aug-2020 20:01:31
 
METAR
KCPS 
25nm NE 
120053Z AUTO 05004KT 10SM FEW030 26/23 A2997 RMK AO2 SLP144 T02610233 PNO $
KFAM 
26nm S 
120056Z AUTO 00000KT 10SM CLR 23/23 A3000 RMK AO2 SLP163 T02330233
KSUS 
30nm NW 
120054Z 00000KT 10SM BKN080 27/23 A2997 RMK AO2 SLP140 T02670233
KPCD 
32nm SE 
120055Z AUTO 00000KT 10SM CLR 22/21 A2997 RMK AO2 T02190210
KSAR 
33nm E 
120040Z AUTO 00000KT 10SM CLR 25/23 A2998 RMK AO2
KBLV 
33nm NE 
120056Z AUTO 02005KT 10SM CLR 26/24 A2996 RMK AO2 SLP145 T02590235 $
KSTL 
33nm N 
120051Z 01005KT 10SM FEW028 BKN150 OVC200 27/22 A2998 RMK AO2 SLP142 T02720217
KFYG 
37nm NW 
120035Z AUTO 00000KT 10SM CLR 24/24 A2997 RMK AO2
KSET 
44nm N 
120054Z AUTO 00000KT 10SM FEW050 26/23 A2997 RMK AO2 SLP144 T02610228
KALN 
45nm N 
120050Z 05005KT 10SM OVC200 25/24 A2998
TAF
KCPS 
25nm NE 
111720Z 1118/1218 VRB03KT P6SM BKN035 FM120900 VRB03KT 4SM BR VCTS BKN020CB FM121600 10005KT P6SM BKN035
KSUS 
30nm NW 
112234Z 1123/1218 VRB03KT P6SM BKN035 TEMPO 1123/1124 BKN025 FM120900 VRB03KT 3SM BR VCTS BKN020CB FM121600 10005KT P6SM BKN035
NOTAMs
Click for the latest NOTAMs
NOTAMs are issued by the DoD/FAA and will open in a separate window not controlled by AirNav.

 

 
 

Would you like to see your business listed on this page?

 If your business provides an interesting product or service to pilots, flight crews, aircraft, or users of the Mercy Hospital Jefferson Heliport, you should consider listing it here.  To start the listing process, click on the button below
 
Add a business
 

Other Pages about Mercy Hospital Jefferson Heliport

Update a link
 
Copyright © AirNav, LLC. All rights reserved. Privacy Policy  Contact